Station: EHBK - 18/02/2019 04:55Z (il y a 22 minutes)
EHBK 180455Z AUTO 21009KT 9999 NCD 06/M01 Q1019 NOSIG
Vent du 210º - 9 kt
Visibilité > 10 km
Pas de nuages détectés
Température: +06ºC - Point de rosée: -01ºC - QNH: 1019 hPa
Pas de changement significatif prévu dans les 2 heures qui suivent l'observation